createdAt,value
2023-03-15T00:02:01.697Z,99630.41
2023-03-15T00:04:29.608Z,99633.59
2023-03-15T00:06:57.274Z,99635.66
2023-03-15T00:09:25.051Z,99647.41
2023-03-15T00:11:54.988Z,99652.91
2023-03-15T00:14:23.351Z,99649.63
2023-03-15T00:16:51.303Z,99661.19
2023-03-15T00:19:18.995Z,99664.75
2023-03-15T00:21:46.649Z,99664.38
2023-03-15T00:24:14.289Z,99664.63
2023-03-15T00:26:41.987Z,99672.34
2023-03-15T00:29:09.719Z,99666.03
2023-03-15T00:31:37.606Z,99676.38
2023-03-15T00:34:05.258Z,99679.09
2023-03-15T00:36:33.302Z,99680.41
2023-03-15T00:39:01.008Z,99685.06
2023-03-15T00:41:28.678Z,99686.78
2023-03-15T00:43:56.386Z,99697.63
2023-03-15T00:46:24.124Z,99694.09
2023-03-15T00:48:51.972Z,99694.84
2023-03-15T00:51:21.599Z,99698.66
2023-03-15T00:53:49.925Z,99697.50
2023-03-15T00:56:19.523Z,99699.69
2023-03-15T00:58:47.568Z,99703.03
2023-03-15T01:01:33.564Z,99704.72
2023-03-15T01:04:01.587Z,99705.47
2023-03-15T01:06:29.386Z,99710.09
2023-03-15T01:08:57.487Z,99712.50
2023-03-15T01:11:26.996Z,99709.56
2023-03-15T01:13:55.337Z,99709.44
2023-03-15T01:16:23.002Z,99706.19
2023-03-15T01:18:51.937Z,99707.69
2023-03-15T01:21:21.555Z,99695.78
2023-03-15T01:23:49.092Z,99709.00
2023-03-15T01:26:17.300Z,99708.44
2023-03-15T01:28:44.917Z,99715.72
2023-03-15T01:31:20.917Z,99704.81
2023-03-15T01:33:48.447Z,99702.88
2023-03-15T01:36:15.984Z,99698.16
2023-03-15T01:38:43.602Z,99706.38
2023-03-15T01:41:12.575Z,99706.66
2023-03-15T01:43:47.395Z,99707.94
2023-03-15T01:46:24.864Z,99718.75
2023-03-15T01:49:07.716Z,99726.94
2023-03-15T01:51:43.066Z,99723.56
2023-03-15T01:54:10.866Z,99723.47
2023-03-15T01:56:41.148Z,99727.56
2023-03-15T01:59:10.925Z,99729.06
2023-03-15T02:01:45.841Z,99720.84
2023-03-15T02:04:18.589Z,99717.66
2023-03-15T02:06:47.957Z,99707.34
2023-03-15T02:09:18.287Z,99714.47
2023-03-15T02:11:47.601Z,99711.34
2023-03-15T02:14:17.700Z,99713.16
2023-03-15T02:16:45.780Z,99709.13
2023-03-15T02:19:39.328Z,99707.19
2023-03-15T02:22:09.877Z,99711.94
2023-03-15T02:24:46.514Z,99713.63
2023-03-15T02:27:14.215Z,99709.72
2023-03-15T02:29:42.664Z,99709.72
2023-03-15T02:32:10.255Z,99700.50
2023-03-15T02:34:37.805Z,99705.41
2023-03-15T02:37:05.364Z,99709.03
2023-03-15T02:39:32.917Z,99706.38
2023-03-15T02:42:02.336Z,99709.19
2023-03-15T02:44:32.529Z,99718.81
2023-03-15T02:47:02.779Z,99717.84
2023-03-15T02:49:32.989Z,99713.38
2023-03-15T02:52:00.619Z,99720.78
2023-03-15T02:54:28.139Z,99724.81
2023-03-15T02:56:55.766Z,99716.00
2023-03-15T02:59:23.251Z,99725.41
2023-03-15T03:01:51.432Z,99723.13
2023-03-15T03:04:19.152Z,99726.91
2023-03-15T03:06:46.869Z,99729.56
2023-03-15T03:09:19.244Z,99732.09
2023-03-15T03:11:46.783Z,99738.66
2023-03-15T03:14:14.330Z,99729.28
2023-03-15T03:16:43.156Z,99737.53
2023-03-15T03:19:14.141Z,99741.53
2023-03-15T03:21:44.550Z,99746.06
2023-03-15T03:24:16.363Z,99748.09
2023-03-15T03:26:46.425Z,99747.25
2023-03-15T03:29:17.036Z,99756.28
2023-03-15T03:31:47.352Z,99752.94
2023-03-15T03:34:15.857Z,99758.34
2023-03-15T03:36:43.770Z,99758.75
2023-03-15T03:39:13.127Z,99757.78
2023-03-15T03:41:40.848Z,99771.41
2023-03-15T03:44:11.025Z,99768.94
2023-03-15T03:46:39.850Z,99773.53
2023-03-15T03:49:07.434Z,99778.81
2023-03-15T03:51:36.481Z,99789.16
2023-03-15T03:54:04.292Z,99789.31
2023-03-15T03:56:31.811Z,99792.53
2023-03-15T03:58:59.302Z,99786.50
2023-03-15T04:01:38.704Z,99796.84
2023-03-15T04:04:06.694Z,99794.94
2023-03-15T04:06:34.698Z,99803.56
2023-03-15T04:09:05.191Z,99798.22
2023-03-15T04:11:42.750Z,99805.44
2023-03-15T04:14:11.273Z,99793.25
2023-03-15T04:16:39.261Z,99799.75
2023-03-15T04:19:09.709Z,99795.31
2023-03-15T04:21:38.286Z,99784.91
2023-03-15T04:24:20.360Z,99800.22
2023-03-15T04:27:06.762Z,99802.72
2023-03-15T04:29:54.544Z,99789.72
2023-03-15T04:32:43.805Z,99795.34
2023-03-15T04:35:18.896Z,99792.44
2023-03-15T04:38:09.710Z,99798.97
2023-03-15T04:40:37.298Z,99798.47
2023-03-15T04:43:16.634Z,99812.00
2023-03-15T04:45:56.045Z,99813.88
2023-03-15T04:48:42.128Z,99827.38
2023-03-15T04:51:26.479Z,99825.97
2023-03-15T04:54:17.210Z,99821.56
2023-03-15T04:57:03.891Z,99830.88
2023-03-15T04:59:51.670Z,99831.00
2023-03-15T05:02:41.829Z,99832.75
2023-03-15T05:05:26.508Z,99843.13
2023-03-15T05:08:18.878Z,99836.38
2023-03-15T05:11:01.237Z,99850.28
2023-03-15T05:13:39.841Z,99851.91
2023-03-15T05:16:33.417Z,99866.44
2023-03-15T05:19:11.889Z,99869.78
2023-03-15T05:21:47.070Z,99866.28
2023-03-15T05:24:32.871Z,99873.38
2023-03-15T05:27:18.846Z,99868.59
2023-03-15T05:30:04.613Z,99869.41
2023-03-15T05:33:05.008Z,99882.09
2023-03-15T05:35:59.527Z,99885.09
2023-03-15T05:38:36.498Z,99894.38
2023-03-15T05:41:07.021Z,99900.69
2023-03-15T05:43:47.836Z,99902.00
2023-03-15T05:46:38.110Z,99906.50
2023-03-15T05:49:29.017Z,99915.81
2023-03-15T05:52:22.780Z,99924.91
2023-03-15T05:54:57.587Z,99928.41
2023-03-15T05:57:55.723Z,99921.56
2023-03-15T06:00:45.309Z,99924.66
2023-03-15T06:03:26.052Z,99922.13
2023-03-15T06:06:01.266Z,99927.94
2023-03-15T06:08:36.642Z,99928.19
2023-03-15T06:11:04.166Z,99930.09
2023-03-15T06:13:33.383Z,99949.69
2023-03-15T06:16:06.143Z,99955.06
2023-03-15T06:18:37.203Z,99959.97
2023-03-15T06:21:04.685Z,99968.75
2023-03-15T06:23:32.544Z,99976.53
2023-03-15T06:26:00.088Z,99972.13
2023-03-15T06:28:30.163Z,99979.56
2023-03-15T06:31:05.364Z,99976.78
2023-03-15T06:33:37.694Z,99978.22
2023-03-15T06:36:06.405Z,99978.41
2023-03-15T06:38:34.134Z,99983.63
2023-03-15T06:41:01.648Z,99979.25
2023-03-15T06:43:29.845Z,99989.50
2023-03-15T06:46:00.187Z,99989.75
2023-03-15T06:48:28.740Z,99991.63
2023-03-15T06:50:58.197Z,99992.56
2023-03-15T06:53:25.744Z,100001.47
2023-03-15T06:55:53.307Z,100012.56
2023-03-15T06:58:20.808Z,100005.63
2023-03-15T07:00:49.790Z,100006.34
2023-03-15T07:03:17.398Z,100004.56
2023-03-15T07:05:46.776Z,100007.97
2023-03-15T07:08:14.382Z,99998.78
2023-03-15T07:10:41.994Z,99994.88
2023-03-15T07:13:10.298Z,99990.69
2023-03-15T07:15:37.968Z,99990.69
2023-03-15T07:18:05.614Z,100000.34
2023-03-15T07:20:33.737Z,100007.09
2023-03-15T07:23:02.301Z,100014.94
2023-03-15T07:25:29.977Z,100016.34
2023-03-15T07:27:57.555Z,100020.25
2023-03-15T07:30:25.111Z,100031.88
2023-03-15T07:32:52.923Z,100034.44
2023-03-15T07:35:20.692Z,100024.88
2023-03-15T07:37:48.220Z,100031.31
2023-03-15T07:40:16.385Z,100025.13
2023-03-15T07:42:44.161Z,100038.53
2023-03-15T07:45:13.658Z,100044.50
2023-03-15T07:47:41.262Z,100050.19
2023-03-15T07:50:09.150Z,100053.63
2023-03-15T07:52:36.741Z,100056.75
2023-03-15T07:55:08.497Z,100068.81
2023-03-15T07:57:36.059Z,100064.19
2023-03-15T08:00:04.807Z,100071.88
2023-03-15T08:02:42.272Z,100082.00
2023-03-15T08:05:10.347Z,100082.56
2023-03-15T08:07:37.954Z,100092.00
2023-03-15T08:10:06.432Z,100092.66
2023-03-15T08:12:35.451Z,100097.41
2023-03-15T08:15:03.032Z,100088.84
2023-03-15T08:17:30.911Z,100102.97
2023-03-15T08:19:58.457Z,100094.44
2023-03-15T08:22:26.105Z,100098.38
2023-03-15T08:24:53.668Z,100101.81
2023-03-15T08:27:21.258Z,100104.81
2023-03-15T08:29:48.847Z,100109.03
2023-03-15T08:32:17.398Z,100112.56
2023-03-15T08:34:45.390Z,100112.41
2023-03-15T08:37:13.390Z,100116.78
2023-03-15T08:39:41.049Z,100115.75
2023-03-15T08:42:08.676Z,100127.72
2023-03-15T08:44:36.457Z,100130.41
2023-03-15T08:47:05.485Z,100132.22
2023-03-15T08:49:33.085Z,100141.16
2023-03-15T08:52:01.002Z,100149.44
2023-03-15T08:54:28.575Z,100157.28
2023-03-15T08:56:56.183Z,100157.59
2023-03-15T08:59:31.951Z,100166.94
2023-03-15T09:02:19.139Z,100169.13
2023-03-15T09:04:46.767Z,100178.28
2023-03-15T09:07:14.957Z,100179.75
2023-03-15T09:09:42.563Z,100181.69
2023-03-15T09:12:10.193Z,100187.28
2023-03-15T09:14:37.785Z,100189.13
2023-03-15T09:17:05.437Z,100184.34
2023-03-15T09:19:33.116Z,100195.34
2023-03-15T09:22:16.387Z,100202.13
2023-03-15T09:24:44.678Z,100210.50
2023-03-15T09:27:12.477Z,100218.06
2023-03-15T09:29:39.999Z,100220.53
2023-03-15T09:32:07.785Z,100218.53
2023-03-15T09:34:41.702Z,100226.44
2023-03-15T09:37:10.130Z,100226.88
2023-03-15T09:39:37.703Z,100231.66
2023-03-15T09:42:11.053Z,100235.28
2023-03-15T09:44:43.882Z,100249.56
2023-03-15T09:47:37.623Z,100255.34
2023-03-15T09:50:10.113Z,100256.59
2023-03-15T09:52:46.201Z,100256.47
2023-03-15T09:55:21.622Z,100255.84
2023-03-15T09:57:58.045Z,100262.56
2023-03-15T10:00:39.945Z,100260.34
2023-03-15T10:03:16.093Z,100259.31
2023-03-15T10:05:46.272Z,100268.72
2023-03-15T10:08:15.997Z,100271.09
2023-03-15T10:10:52.388Z,100266.03
2023-03-15T10:13:39.025Z,100277.75
2023-03-15T10:16:13.406Z,100279.44
2023-03-15T10:18:46.678Z,100278.03
2023-03-15T10:21:24.449Z,100289.06
2023-03-15T10:23:53.906Z,100281.38
2023-03-15T10:26:24.906Z,100273.72
2023-03-15T10:28:53.147Z,100282.03
2023-03-15T10:31:36.825Z,100279.25
2023-03-15T10:34:14.265Z,100278.69
2023-03-15T10:36:50.104Z,100276.38
2023-03-15T10:39:17.695Z,100281.59
2023-03-15T10:41:49.532Z,100296.09
2023-03-15T10:44:21.672Z,100286.63
2023-03-15T10:47:15.988Z,100290.88
2023-03-15T10:49:50.519Z,100300.44
2023-03-15T10:52:35.719Z,100306.31
2023-03-15T10:55:11.852Z,100308.75
2023-03-15T10:57:41.179Z,100315.47
2023-03-15T11:00:25.910Z,100324.69
2023-03-15T11:03:02.204Z,100334.31
2023-03-15T11:05:31.434Z,100330.94
2023-03-15T11:08:00.301Z,100330.22
2023-03-15T11:10:29.688Z,100333.81
2023-03-15T11:13:10.585Z,100337.91
2023-03-15T11:15:38.885Z,100348.16
2023-03-15T11:18:08.467Z,100361.13
2023-03-15T11:20:39.701Z,100378.06
2023-03-15T11:23:15.388Z,100390.97
2023-03-15T11:25:43.010Z,100398.69
2023-03-15T11:28:18.198Z,100417.59
2023-03-15T11:30:48.556Z,100425.47
2023-03-15T11:33:24.729Z,100424.22
2023-03-15T11:35:53.153Z,100439.84
2023-03-15T11:38:24.394Z,100431.94
2023-03-15T11:40:56.454Z,100442.69
2023-03-15T11:43:34.630Z,100418.47
2023-03-15T11:46:05.482Z,100426.03
2023-03-15T11:48:48.711Z,100414.72
2023-03-15T11:51:16.525Z,100434.13
2023-03-15T11:54:04.312Z,100417.22
2023-03-15T11:56:44.144Z,100423.56
2023-03-15T11:59:13.893Z,100438.50
2023-03-15T12:01:51.751Z,100427.69
2023-03-15T12:04:25.537Z,100422.22
2023-03-15T12:06:54.441Z,100439.41
2023-03-15T12:09:36.499Z,100433.84
2023-03-15T12:12:06.055Z,100432.34
2023-03-15T12:14:35.528Z,100434.06
2023-03-15T12:17:21.953Z,100449.00
2023-03-15T12:19:58.032Z,100421.91
2023-03-15T12:22:31.038Z,100420.50
2023-03-15T12:25:02.451Z,100426.66
2023-03-15T12:27:30.820Z,100429.25
2023-03-15T12:30:01.031Z,100410.63
2023-03-15T12:32:31.447Z,100416.84
2023-03-15T12:35:09.092Z,100413.97
2023-03-15T12:37:43.990Z,100418.31
2023-03-15T12:40:20.671Z,100411.44
2023-03-15T12:42:52.907Z,100411.44
2023-03-15T12:45:20.604Z,100419.09
2023-03-15T12:48:14.025Z,100414.59
2023-03-15T12:50:44.316Z,100404.28
2023-03-15T12:53:14.806Z,100392.94
2023-03-15T12:55:43.537Z,100398.81
2023-03-15T12:58:13.398Z,100390.69
2023-03-15T13:00:42.497Z,100395.63
2023-03-15T13:03:17.093Z,100388.78
2023-03-15T13:05:47.058Z,100380.59
2023-03-15T13:08:21.461Z,100383.97
2023-03-15T13:10:52.128Z,100394.25
2023-03-15T13:13:19.650Z,100379.69
2023-03-15T13:16:15.688Z,100376.91
2023-03-15T13:18:49.240Z,100370.50
2023-03-15T13:21:24.637Z,100374.09
2023-03-15T13:23:52.826Z,100372.78
2023-03-15T13:26:39.251Z,100369.44
2023-03-15T13:29:15.272Z,100381.75
2023-03-15T13:31:43.780Z,100366.00
2023-03-15T13:34:13.112Z,100367.16
2023-03-15T13:36:43.785Z,100370.13
2023-03-15T13:39:17.696Z,100369.75
2023-03-15T13:41:45.312Z,100369.56
2023-03-15T13:44:20.956Z,100380.81
2023-03-15T13:46:49.633Z,100374.97
2023-03-15T13:49:17.678Z,100382.38
2023-03-15T13:51:46.181Z,100373.06
2023-03-15T13:54:13.658Z,100372.31
2023-03-15T13:56:55.929Z,100373.09
2023-03-15T13:59:32.731Z,100377.59
2023-03-15T14:02:02.823Z,100370.88
2023-03-15T14:04:31.964Z,100366.47
2023-03-15T14:07:25.324Z,100373.50
2023-03-15T14:10:13.168Z,100364.09
2023-03-15T14:12:40.831Z,100376.88
2023-03-15T14:15:26.731Z,100370.41
2023-03-15T14:17:58.162Z,100370.19
2023-03-15T14:20:30.240Z,100382.84
2023-03-15T14:22:59.725Z,100379.13
2023-03-15T14:25:27.392Z,100377.69
2023-03-15T14:27:55.102Z,100386.53
2023-03-15T14:30:24.640Z,100394.66
2023-03-15T14:32:54.202Z,100385.72
2023-03-15T14:35:36.786Z,100396.25
2023-03-15T14:38:08.913Z,100401.81
2023-03-15T14:40:38.875Z,100400.09
2023-03-15T14:43:06.981Z,100402.91
2023-03-15T14:45:35.803Z,100406.69
2023-03-15T14:48:06.293Z,100402.94
2023-03-15T14:50:39.271Z,100416.63
2023-03-15T14:53:07.718Z,100407.69
2023-03-15T14:55:37.009Z,100409.16
2023-03-15T14:58:05.382Z,100411.41
2023-03-15T15:00:33.112Z,100405.88
2023-03-15T15:03:01.614Z,100416.59
2023-03-15T15:05:31.108Z,100415.91
2023-03-15T15:08:10.820Z,100420.88
2023-03-15T15:10:39.153Z,100417.81
2023-03-15T15:13:07.614Z,100428.63
2023-03-15T15:15:51.814Z,100433.09
2023-03-15T15:18:23.324Z,100430.78
2023-03-15T15:20:54.442Z,100430.97
2023-03-15T15:23:29.392Z,100435.53
2023-03-15T15:25:58.329Z,100430.59
2023-03-15T15:28:36.486Z,100432.06
2023-03-15T15:31:07.271Z,100426.91
2023-03-15T15:33:35.244Z,100432.72
2023-03-15T15:36:02.947Z,100432.31
2023-03-15T15:38:34.908Z,100424.63
2023-03-15T15:41:02.524Z,100429.38
2023-03-15T15:43:32.337Z,100430.91
2023-03-15T15:46:02.299Z,100435.25
2023-03-15T15:48:30.070Z,100437.28
2023-03-15T15:50:57.968Z,100438.28
2023-03-15T15:53:25.748Z,100437.69
2023-03-15T15:55:53.375Z,100441.81
2023-03-15T15:58:22.902Z,100441.28
2023-03-15T16:00:50.480Z,100443.47
2023-03-15T16:03:18.832Z,100457.13
2023-03-15T16:05:46.927Z,100452.59
2023-03-15T16:08:36.225Z,100456.34
2023-03-15T16:11:05.328Z,100467.97
2023-03-15T16:13:34.094Z,100461.88
2023-03-15T16:16:01.746Z,100468.25
2023-03-15T16:18:31.426Z,100470.94
2023-03-15T16:21:00.646Z,100474.97
2023-03-15T16:23:29.181Z,100481.09
2023-03-15T16:25:57.885Z,100483.13
2023-03-15T16:28:25.916Z,100480.50
2023-03-15T16:30:53.629Z,100485.69
2023-03-15T16:33:21.803Z,100498.22
2023-03-15T16:35:50.557Z,100497.22
2023-03-15T16:38:24.672Z,100497.56
2023-03-15T16:40:53.361Z,100503.84
2023-03-15T16:43:21.036Z,100500.03
2023-03-15T16:45:48.998Z,100509.31
2023-03-15T16:48:16.542Z,100509.09
2023-03-15T16:50:44.586Z,100512.13
2023-03-15T16:53:13.355Z,100520.84
2023-03-15T16:55:40.880Z,100523.53
2023-03-15T16:58:15.286Z,100526.84
2023-03-15T17:00:47.104Z,100538.69
2023-03-15T17:03:15.025Z,100539.06
2023-03-15T17:05:44.937Z,100536.16
2023-03-15T17:08:14.309Z,100548.91
2023-03-15T17:10:42.641Z,100547.75
2023-03-15T17:13:11.663Z,100563.41
2023-03-15T17:15:39.289Z,100569.81
2023-03-15T17:18:14.012Z,100566.28
2023-03-15T17:20:41.579Z,100574.63
2023-03-15T17:23:09.680Z,100575.69
2023-03-15T17:25:37.760Z,100588.06
2023-03-15T17:28:05.545Z,100593.44
2023-03-15T17:30:34.509Z,100588.97
2023-03-15T17:33:02.540Z,100597.56
2023-03-15T17:35:33.972Z,100599.38
2023-03-15T17:38:06.267Z,100601.38
2023-03-15T17:40:35.914Z,100607.28
2023-03-15T17:43:04.236Z,100610.03
2023-03-15T17:45:33.265Z,100604.47
2023-03-15T17:48:01.574Z,100619.38
2023-03-15T17:50:30.806Z,100622.72
2023-03-15T17:53:00.325Z,100629.41
2023-03-15T17:55:28.528Z,100642.94
2023-03-15T17:57:56.073Z,100636.84
2023-03-15T18:00:24.322Z,100638.97
2023-03-15T18:02:56.332Z,100648.59
2023-03-15T18:05:26.150Z,100656.31
2023-03-15T18:07:59.096Z,100666.44
2023-03-15T18:10:31.799Z,100674.47
2023-03-15T18:12:59.268Z,100677.88
2023-03-15T18:15:26.775Z,100675.47
2023-03-15T18:17:54.262Z,100683.34
2023-03-15T18:20:24.201Z,100684.91
2023-03-15T18:22:52.123Z,100687.84
2023-03-15T18:25:32.983Z,100691.09
2023-03-15T18:28:00.862Z,100695.31
2023-03-15T18:30:29.202Z,100688.53
2023-03-15T18:32:57.746Z,100693.19
2023-03-15T18:35:35.510Z,100699.09
2023-03-15T18:38:04.454Z,100706.13
2023-03-15T18:40:33.397Z,100708.38
2023-03-15T18:43:01.588Z,100715.22
2023-03-15T18:45:30.823Z,100725.09
2023-03-15T18:48:00.106Z,100724.66
2023-03-15T18:50:28.641Z,100728.47
2023-03-15T18:52:56.253Z,100730.09
2023-03-15T18:55:23.860Z,100735.03
2023-03-15T18:57:52.309Z,100742.97
2023-03-15T19:00:26.128Z,100750.69
2023-03-15T19:02:55.086Z,100747.03
2023-03-15T19:05:22.648Z,100750.50
2023-03-15T19:07:50.579Z,100760.47
2023-03-15T19:10:19.752Z,100759.06
2023-03-15T19:12:48.314Z,100764.13
2023-03-15T19:15:17.681Z,100775.72
2023-03-15T19:17:47.032Z,100775.44
2023-03-15T19:20:16.030Z,100777.38
2023-03-15T19:22:45.352Z,100780.22
2023-03-15T19:25:14.131Z,100790.59
2023-03-15T19:27:42.247Z,100791.94
2023-03-15T19:30:14.606Z,100791.41
2023-03-15T19:32:43.188Z,100799.53
2023-03-15T19:35:10.899Z,100811.75
2023-03-15T19:37:38.562Z,100814.47
2023-03-15T19:40:09.702Z,100816.06
2023-03-15T19:42:37.280Z,100821.84
2023-03-15T19:45:05.468Z,100831.50
2023-03-15T19:47:32.980Z,100825.41
2023-03-15T19:50:01.714Z,100833.84
2023-03-15T19:52:29.426Z,100836.88
2023-03-15T19:54:57.376Z,100842.59
2023-03-15T19:57:24.910Z,100844.59
2023-03-15T19:59:52.481Z,100836.50
2023-03-15T20:02:20.042Z,100840.38
2023-03-15T20:04:47.798Z,100847.19
2023-03-15T20:07:15.909Z,100851.03
2023-03-15T20:09:43.625Z,100868.78
2023-03-15T20:12:12.738Z,100869.41
2023-03-15T20:14:40.280Z,100878.00
2023-03-15T20:17:08.040Z,100871.53
2023-03-15T20:19:36.381Z,100877.91
2023-03-15T20:22:04.973Z,100877.16
2023-03-15T20:24:33.410Z,100885.56
2023-03-15T20:27:02.315Z,100884.63
2023-03-15T20:29:31.837Z,100886.50
2023-03-15T20:31:59.595Z,100886.34
2023-03-15T20:34:27.947Z,100890.28
2023-03-15T20:36:55.776Z,100893.41
2023-03-15T20:39:24.494Z,100896.50
2023-03-15T20:41:52.640Z,100898.31
2023-03-15T20:44:21.133Z,100905.06
2023-03-15T20:46:49.601Z,100909.44
2023-03-15T20:49:17.690Z,100898.81
2023-03-15T20:51:45.629Z,100911.31
2023-03-15T20:54:13.146Z,100911.44
2023-03-15T20:56:40.679Z,100910.94
2023-03-15T20:59:08.512Z,100918.59
2023-03-15T21:01:36.032Z,100919.56
2023-03-15T21:04:07.402Z,100922.69
2023-03-15T21:06:35.255Z,100929.59
2023-03-15T21:09:03.010Z,100936.50
2023-03-15T21:11:30.885Z,100931.78
2023-03-15T21:13:58.600Z,100928.38
2023-03-15T21:16:26.655Z,100931.28
2023-03-15T21:18:55.207Z,100935.72
2023-03-15T21:21:23.240Z,100936.09
2023-03-15T21:23:50.747Z,100950.22
2023-03-15T21:26:18.365Z,100939.50
2023-03-15T21:28:46.961Z,100937.50
2023-03-15T21:31:14.614Z,100953.91
2023-03-15T21:33:42.181Z,100955.16
2023-03-15T21:36:09.838Z,100961.63
2023-03-15T21:38:37.752Z,100962.19
2023-03-15T21:41:10.168Z,100960.56
2023-03-15T21:43:37.891Z,100961.09
2023-03-15T21:46:07.437Z,100969.38
2023-03-15T21:48:35.271Z,100963.75
2023-03-15T21:51:03.483Z,100961.47
2023-03-15T21:53:31.897Z,100972.19
2023-03-15T21:56:00.126Z,100981.66
2023-03-15T21:58:28.291Z,100994.75
2023-03-15T22:00:59.950Z,101002.44
2023-03-15T22:03:28.117Z,100988.13
2023-03-15T22:05:55.975Z,100980.31
2023-03-15T22:08:23.847Z,100985.25
2023-03-15T22:10:58.958Z,100985.16
2023-03-15T22:13:27.014Z,100988.63
2023-03-15T22:15:54.944Z,100992.50
2023-03-15T22:18:22.467Z,100989.00
2023-03-15T22:20:51.329Z,100995.34
2023-03-15T22:23:18.967Z,101000.53
2023-03-15T22:25:46.699Z,101000.50
2023-03-15T22:28:14.599Z,101007.16
2023-03-15T22:30:43.100Z,101016.00
2023-03-15T22:33:12.328Z,101006.47
2023-03-15T22:35:39.933Z,101009.66
2023-03-15T22:38:10.521Z,101002.84
2023-03-15T22:40:39.609Z,101007.75
2023-03-15T22:43:07.990Z,101004.97
2023-03-15T22:45:35.578Z,101008.09
2023-03-15T22:48:03.541Z,101017.53
2023-03-15T22:50:31.490Z,101007.47
2023-03-15T22:52:59.192Z,101011.13
2023-03-15T22:55:27.593Z,101002.53
2023-03-15T22:57:55.285Z,101013.00
2023-03-15T23:00:25.214Z,101011.16
2023-03-15T23:02:55.733Z,101009.13
2023-03-15T23:05:23.787Z,101009.19
2023-03-15T23:07:51.428Z,101014.97
2023-03-15T23:10:18.940Z,101022.09
2023-03-15T23:12:46.481Z,101017.75
2023-03-15T23:15:14.898Z,101023.06
2023-03-15T23:17:46.881Z,101024.94
2023-03-15T23:20:15.536Z,101017.13
2023-03-15T23:22:43.819Z,101025.06
2023-03-15T23:25:12.126Z,101032.22
2023-03-15T23:27:40.547Z,101037.69
2023-03-15T23:30:10.645Z,101039.31
2023-03-15T23:32:38.348Z,101041.63
2023-03-15T23:35:08.110Z,101046.09
2023-03-15T23:37:36.024Z,101046.19
2023-03-15T23:40:09.747Z,101045.44
2023-03-15T23:42:37.852Z,101055.53
2023-03-15T23:45:05.984Z,101056.16
2023-03-15T23:47:33.567Z,101054.06
2023-03-15T23:50:02.718Z,101056.41
2023-03-15T23:52:30.290Z,101053.59
2023-03-15T23:54:57.861Z,101060.06
2023-03-15T23:57:25.570Z,101058.59
2023-03-15T23:59:53.072Z,101065.50
